Ikan Parang — 9V9099 — position and weather

sailwx.info

Track history (hours):
 
Tides and Currents Weather Stations Pressure Air Temp Water Temp Dewpoint Dewpoint Depression Visibility Wind Speed Wind Dir Waves Ship Positions

Ikan Parang

Last reported at 2017-Jun-22 13:24 UTC. Time now 2017-Jun-22 20:34 UTC.
Position N 38°42' E 120°10'.

Length 183 m; draft 12.8 m.

Type: Cargo ship. MMSI: 566238000.

Date/timePositionNaut miles runAvg speedWind from/ knotsBaromVisibWave heightAir tempDewpointWater temp
2017-Jun-22 13:24N 38°42' E 120°10'2612.0
2017-Jun-22 11:13N 38°38' E 120°43'311.5
2017-Jun-22 10:59N 38°38' E 120°47'711.1
2017-Jun-22 10:23N 38°37' E 120°55'411.1
2017-Jun-22 09:59N 38°34' E 120°60'611.6
2017-Jun-22 09:30N 38°32' E 121°06'611.4
2017-Jun-22 09:00N 38°28' E 121°12'611.3
2017-Jun-22 08:29N 38°25' E 121°18'511.5
2017-Jun-22 08:00N 38°22' E 121°24'611.7
2017-Jun-22 07:30N 38°18' E 121°30'611.5
2017-Jun-22 07:00N 38°15' E 121°35'611.7
2017-Jun-22 06:30N 38°11' E 121°41'611.8
2017-Jun-22 05:59N 38°08' E 121°48'612.0
2017-Jun-22 05:30N 38°04' E 121°53'611.9
2017-Jun-22 05:00N 38°01' E 121°60'611.7
2017-Jun-22 04:30N 37°57' E 122°05'611.9
2017-Jun-22 04:00N 37°54' E 122°12'611.8
2017-Jun-22 03:30N 37°50' E 122°17'4610.2
2017-Jun-21 22:57N 37°13' E 122°53'512.3
2017-Jun-21 22:30N 37°08' E 122°53'  
Track history (hours):
 
Tides and Currents Weather Stations Pressure Air Temp Water Temp Dewpoint Dewpoint Depression Visibility Wind Speed Wind Dir Waves Ship Positions

Ikan Parang

Last reported at 2017-Jun-22 13:24 UTC. Time now 2017-Jun-22 20:34 UTC.
Position N 38°42' E 120°10'.

Length 183 m; draft 12.8 m.

Type: Cargo ship. MMSI: 566238000.

Date/timePositionNaut miles runAvg speedWind from/ knotsBaromVisibWave heightAir tempDewpointWater temp
2017-Jun-22 13:24N 38°42' E 120°10'2612.0
2017-Jun-22 11:13N 38°38' E 120°43'311.5
2017-Jun-22 10:59N 38°38' E 120°47'711.1
2017-Jun-22 10:23N 38°37' E 120°55'411.1
2017-Jun-22 09:59N 38°34' E 120°60'611.6
2017-Jun-22 09:30N 38°32' E 121°06'611.4
2017-Jun-22 09:00N 38°28' E 121°12'611.3
2017-Jun-22 08:29N 38°25' E 121°18'511.5
2017-Jun-22 08:00N 38°22' E 121°24'611.7
2017-Jun-22 07:30N 38°18' E 121°30'611.5
2017-Jun-22 07:00N 38°15' E 121°35'611.7
2017-Jun-22 06:30N 38°11' E 121°41'611.8
2017-Jun-22 05:59N 38°08' E 121°48'612.0
2017-Jun-22 05:30N 38°04' E 121°53'611.9
2017-Jun-22 05:00N 38°01' E 121°60'611.7
2017-Jun-22 04:30N 37°57' E 122°05'611.9
2017-Jun-22 04:00N 37°54' E 122°12'611.8
2017-Jun-22 03:30N 37°50' E 122°17'4610.2
2017-Jun-21 22:57N 37°13' E 122°53'512.3
2017-Jun-21 22:30N 37°08' E 122°53'  

Dump ship's entire track history